Time;durP1;ratioP1;P1;durP2;ratioP2;P2;SDS_P1;SDS_P2;PMS_P1;PMS_P2;Temp;Humidity;BMP_temperature;BMP_pressure;BME280_temperature;BME280_humidity;BME280_pressure;Samples;Min_cycle;Max_cycle;Signal;HPM_P1;HPM_P2
2022/05/16 00:00:24;;;;;;;10.25;3.87;;;;;;;15.56;58.99;101425.38;1745873;82;26045;-59
2022/05/16 00:02:55;;;;;;;15.85;3.77;;;;;;;15.58;58.99;101432.03;1705147;82;25820;-59
2022/05/16 00:05:23;;;;;;;11.57;3.85;;;;;;;15.59;58.99;101427.80;1733242;82;28496;-59
2022/05/16 00:07:50;;;;;;;13.03;4.12;;;;;;;15.58;59.04;101430.16;1732781;82;25501;-59
2022/05/16 00:10:17;;;;;;;16.30;4.55;;;;;;;15.53;58.44;101431.13;1733247;82;25752;-59
2022/05/16 00:12:44;;;;;;;19.00;5.05;;;;;;;15.52;58.60;101437.55;1733095;82;25987;-59
2022/05/16 00:15:14;;;;;;;15.68;4.30;;;;;;;15.50;58.36;101428.70;1740146;82;25748;-59
2022/05/16 00:17:41;;;;;;;9.45;4.20;;;;;;;15.49;58.49;101432.42;1740950;82;27468;-59
2022/05/16 00:20:10;;;;;;;20.05;4.20;;;;;;;15.45;58.50;101429.69;1740980;82;26127;-59
2022/05/16 00:22:38;;;;;;;8.70;4.62;;;;;;;15.42;58.53;101434.05;1740671;81;25771;-60
2022/05/16 00:25:10;;;;;;;12.05;4.22;;;;;;;15.38;58.65;101434.85;1741027;82;26060;-59
2022/05/16 00:27:38;;;;;;;16.37;4.00;;;;;;;15.35;58.51;101436.50;1740629;82;53721;-59
2022/05/16 00:30:10;;;;;;;12.45;4.30;;;;;;;15.31;58.57;101435.11;1741280;82;27516;-58
2022/05/16 00:32:37;;;;;;;14.35;3.47;;;;;;;15.28;58.54;101431.34;1758659;80;25780;-60
2022/05/16 00:35:06;;;;;;;15.03;4.40;;;;;;;15.25;58.51;101434.34;1780108;79;26153;-59
2022/05/16 00:37:33;;;;;;;9.20;3.85;;;;;;;15.21;58.45;101435.15;1780618;80;26045;-60
2022/05/16 00:40:00;;;;;;;17.12;4.17;;;;;;;15.15;58.55;101435.23;1779931;79;25745;-59
2022/05/16 00:42:27;;;;;;;10.90;3.83;;;;;;;15.09;58.73;101431.78;1780158;79;27382;-59
2022/05/16 00:44:55;;;;;;;14.45;4.00;;;;;;;15.00;58.61;101433.55;1780224;80;25463;-59
2022/05/16 00:47:21;;;;;;;12.70;5.30;;;;;;;14.90;58.57;101438.63;1780758;80;25451;-59
2022/05/16 00:49:51;;;;;;;11.60;4.30;;;;;;;14.83;58.75;101438.40;1781012;79;26948;-59
2022/05/16 00:52:23;;;;;;;12.50;3.98;;;;;;;14.77;59.77;101441.67;1780781;80;25896;-59
2022/05/16 00:54:58;;;;;;;17.07;4.45;;;;;;;14.68;59.65;101446.98;1780763;80;27494;-59
2022/05/16 00:57:30;;;;;;;9.58;4.10;;;;;;;14.61;59.84;101441.77;1780927;79;25810;-59
2022/05/16 01:00:12;;;;;;;11.57;4.08;;;;;;;14.56;60.26;101443.56;1780625;80;25772;-58
2022/05/16 01:05:29;;;;;;;12.07;4.40;;;;;;;14.49;60.51;101445.14;1738201;82;25716;-59
2022/05/16 01:08:04;;;;;;;12.78;4.08;;;;;;;14.42;61.44;101445.38;1738115;82;27593;-59
2022/05/16 01:10:31;;;;;;;15.50;4.12;;;;;;;14.36;61.33;101443.23;1738388;82;25771;-59
2022/05/16 01:12:58;;;;;;;26.02;3.62;;;;;;;14.35;61.37;101446.45;1738191;82;25778;-59
2022/05/16 01:15:45;;;;;;;9.65;3.50;;;;;;;14.37;61.28;101439.53;1743193;82;27112;-59
2022/05/16 01:18:17;;;;;;;13.85;3.70;;;;;;;14.37;61.32;101443.11;1743290;82;25800;-59
2022/05/16 01:21:08;;;;;;;14.60;4.10;;;;;;;14.38;61.26;101447.52;1743718;82;27444;-60
2022/05/16 01:23:49;;;;;;;13.30;3.72;;;;;;;14.40;61.22;101446.86;1743091;82;25819;-60
2022/05/16 01:26:20;;;;;;;12.60;3.67;;;;;;;14.40;61.46;101441.44;1743579;82;25542;-60
2022/05/16 01:28:48;;;;;;;9.23;3.62;;;;;;;14.39;60.82;101447.02;1736764;81;26098;-59
2022/05/16 01:31:15;;;;;;;11.50;3.87;;;;;;;14.35;60.32;101442.88;1743607;81;25985;-60
2022/05/16 01:33:42;;;;;;;10.40;3.20;;;;;;;14.36;60.23;101440.52;1784395;80;27500;-60
2022/05/16 01:36:09;;;;;;;14.50;4.00;;;;;;;14.39;60.31;101441.08;1788683;80;25731;-60
2022/05/16 01:38:37;;;;;;;13.40;4.35;;;;;;;14.37;60.26;101432.28;1788805;79;25747;-59
2022/05/16 01:41:08;;;;;;;14.33;4.20;;;;;;;14.38;60.17;101438.05;1789393;80;26211;-59
2022/05/16 01:43:41;;;;;;;17.43;4.07;;;;;;;14.36;60.34;101434.63;1789371;80;25522;-59
2022/05/16 01:46:10;;;;;;;15.58;3.90;;;;;;;14.34;60.08;101432.56;1774197;79;27697;-59
2022/05/16 01:48:37;;;;;;;11.30;3.65;;;;;;;14.31;59.97;101440.11;1734916;82;25772;-59
2022/05/16 01:51:09;;;;;;;11.65;3.40;;;;;;;14.20;59.28;101439.27;1735373;82;25712;-59
2022/05/16 01:53:38;;;;;;;14.13;3.62;;;;;;;14.13;59.19;101439.49;1735179;82;26092;-59
2022/05/16 01:56:05;;;;;;;13.72;3.95;;;;;;;14.12;59.32;101441.00;1735411;82;25780;-59
2022/05/16 01:58:32;;;;;;;15.53;4.22;;;;;;;14.07;59.38;101444.13;1735272;82;27533;-59
2022/05/16 02:01:00;;;;;;;12.15;3.87;;;;;;;14.02;59.40;101444.56;1735779;82;25756;-59
2022/05/16 02:03:27;;;;;;;16.15;4.25;;;;;;;13.97;59.66;101444.11;1743709;82;25720;-60
2022/05/16 02:05:55;;;;;;;9.35;3.67;;;;;;;13.91;59.51;101441.47;1743609;82;26095;-60
2022/05/16 02:08:21;;;;;;;13.32;3.95;;;;;;;13.86;59.85;101442.89;1743680;82;26112;-59
2022/05/16 02:10:48;;;;;;;14.28;4.08;;;;;;;13.80;59.29;101445.69;1743650;82;27498;-60
2022/05/16 02:13:16;;;;;;;14.53;3.40;;;;;;;13.77;59.32;101452.72;1742925;82;25781;-60
2022/05/16 02:15:47;;;;;;;13.32;3.42;;;;;;;13.73;59.35;101449.92;1737373;82;25764;-58
2022/05/16 02:18:15;;;;;;;12.23;3.62;;;;;;;13.69;59.43;101445.80;1737420;82;26066;-60
2022/05/16 02:20:42;;;;;;;12.80;3.85;;;;;;;13.64;59.07;101448.93;1737581;82;25755;-59
2022/05/16 02:25:58;;;;;;;16.25;3.55;;;;;;;13.59;59.56;101456.59;1737319;82;25764;-59
2022/05/16 02:28:25;;;;;;;13.20;3.80;;;;;;;13.49;59.24;101453.03;1737646;82;25790;-59
2022/05/16 02:30:55;;;;;;;16.05;4.17;;;;;;;13.43;59.46;101454.44;1737314;82;26124;-59
2022/05/16 02:33:23;;;;;;;15.43;4.12;;;;;;;13.39;59.95;101457.05;1766411;80;25865;-59
2022/05/16 02:35:50;;;;;;;8.33;3.52;;;;;;;13.35;60.16;101452.89;1774827;80;28245;-59
2022/05/16 02:38:19;;;;;;;19.57;4.05;;;;;;;13.30;60.35;101449.25;1774748;80;25978;-59
2022/05/16 02:40:46;;;;;;;9.50;3.62;;;;;;;13.25;60.41;101446.09;1774804;80;25859;-58
2022/05/16 02:43:13;;;;;;;18.02;4.00;;;;;;;13.22;60.66;101452.62;1775239;80;27016;-59
2022/05/16 02:45:41;;;;;;;20.43;3.72;;;;;;;13.22;61.05;101458.55;1774494;80;25720;-59
2022/05/16 02:48:08;;;;;;;15.50;5.22;;;;;;;13.20;61.20;101461.36;1778189;80;27495;-58
2022/05/16 02:50:35;;;;;;;22.32;4.33;;;;;;;13.19;61.40;101457.45;1779932;80;25732;-60
2022/05/16 02:53:02;;;;;;;21.68;3.08;;;;;;;13.21;61.34;101466.28;1780341;79;25781;-59
2022/05/16 02:55:31;;;;;;;11.80;3.83;;;;;;;13.21;61.46;101463.58;1780306;79;26243;-59
2022/05/16 02:57:58;;;;;;;15.23;3.83;;;;;;;13.24;61.82;101465.52;1780296;80;25707;-59
2022/05/16 03:00:25;;;;;;;25.88;4.50;;;;;;;13.27;61.36;101463.02;1780341;79;28412;-59
2022/05/16 03:02:51;;;;;;;8.68;3.45;;;;;;;13.30;61.45;101457.36;1731410;80;25776;-60
2022/05/16 03:05:18;;;;;;;12.58;3.45;;;;;;;13.36;61.63;101462.20;1724552;82;25684;-59
2022/05/16 03:07:45;;;;;;;8.30;3.62;;;;;;;13.42;61.30;101463.02;1724734;82;26149;-60
2022/05/16 03:10:15;;;;;;;11.73;3.70;;;;;;;13.44;61.24;101458.86;1724485;82;25736;-61
2022/05/16 03:12:45;;;;;;;14.55;3.75;;;;;;;13.48;61.02;101459.43;1724645;82;28300;-59
2022/05/16 03:15:15;;;;;;;9.18;3.20;;;;;;;13.47;60.46;101459.91;1738953;82;25728;-59
2022/05/16 03:17:43;;;;;;;17.15;4.40;;;;;;;13.41;60.15;101458.61;1741068;82;25747;-60
2022/05/16 03:20:14;;;;;;;12.35;3.52;;;;;;;13.42;59.92;101467.08;1740757;82;26082;-61
2022/05/16 03:22:41;;;;;;;18.73;3.55;;;;;;;13.42;59.77;101470.30;1740797;82;25740;-60
2022/05/16 03:25:10;;;;;;;21.05;4.75;;;;;;;13.43;59.84;101472.01;1740991;82;28420;-60
2022/05/16 03:27:38;;;;;;;13.58;3.85;;;;;;;13.45;59.86;101477.63;1741054;82;26136;-59
2022/05/16 03:30:09;;;;;;;10.35;3.65;;;;;;;13.45;59.77;101467.30;1740957;82;25724;-59
2022/05/16 03:32:37;;;;;;;10.60;3.80;;;;;;;13.45;59.64;101471.34;1740106;81;26719;-59
2022/05/16 03:35:06;;;;;;;15.90;3.98;;;;;;;13.48;59.61;101475.65;1738578;81;25837;-60
2022/05/16 03:37:33;;;;;;;24.00;4.40;;;;;;;13.51;59.43;101479.41;1738745;82;27442;-59
2022/05/16 03:42:45;;;;;;;13.43;4.30;;;;;;;13.58;59.21;101477.37;1738469;82;25769;-59
2022/05/16 03:45:12;;;;;;;21.42;4.05;;;;;;;13.61;58.96;101487.05;1738456;82;25977;-59
2022/05/16 03:47:40;;;;;;;10.70;4.42;;;;;;;13.65;58.96;101491.67;1740673;80;25899;-60
2022/05/16 03:50:09;;;;;;;14.35;4.25;;;;;;;13.67;58.91;101488.34;1740642;82;27420;-60
2022/05/16 03:52:35;;;;;;;21.45;5.72;;;;;;;13.72;58.74;101492.83;1740553;81;25805;-60
2022/05/16 03:55:04;;;;;;;21.02;4.72;;;;;;;13.75;58.68;101492.55;1740960;81;25681;-60
2022/05/16 03:57:32;;;;;;;12.07;4.12;;;;;;;13.80;58.63;101489.44;1740755;81;26080;-60
2022/05/16 03:59:58;;;;;;;23.85;4.65;;;;;;;13.84;58.49;101484.96;1741059;81;25769;-60
2022/05/16 04:02:25;;;;;;;16.70;4.20;;;;;;;13.89;58.51;101488.12;1742156;82;28181;-59
2022/05/16 04:04:54;;;;;;;14.65;3.65;;;;;;;13.93;58.42;101498.16;1742626;82;25839;-59
2022/05/16 04:07:21;;;;;;;16.57;4.90;;;;;;;13.91;58.23;101506.90;1742746;82;25768;-60
2022/05/16 04:09:48;;;;;;;18.90;3.90;;;;;;;13.88;58.28;101500.41;1742859;82;26107;-60
2022/05/16 04:12:15;;;;;;;14.15;4.15;;;;;;;13.89;58.26;101498.06;1742811;81;25728;-59
2022/05/16 04:14:41;;;;;;;21.02;4.78;;;;;;;13.89;58.14;101499.41;1745818;82;27478;-60
2022/05/16 04:17:08;;;;;;;13.32;3.98;;;;;;;13.90;58.11;101499.27;1747596;82;25872;-59
2022/05/16 04:19:36;;;;;;;15.18;4.12;;;;;;;13.96;58.06;101499.20;1747689;82;25791;-59
2022/05/16 04:22:04;;;;;;;21.05;5.92;;;;;;;14.02;58.04;101501.37;1747932;82;25966;-59
2022/05/16 04:24:31;;;;;;;19.00;4.72;;;;;;;14.08;58.06;101506.20;1748113;82;25803;-59
2022/05/16 04:26:57;;;;;;;23.47;5.33;;;;;;;14.12;57.87;101508.13;1747760;82;27551;-58
2022/05/16 04:29:25;;;;;;;20.82;4.50;;;;;;;14.14;57.78;101506.62;1747643;82;26114;-59
2022/05/16 04:31:52;;;;;;;17.70;4.50;;;;;;;14.19;57.87;101511.13;1752476;80;25687;-59
2022/05/16 04:34:19;;;;;;;24.60;6.22;;;;;;;14.23;57.64;101515.24;1780998;79;26060;-59
2022/05/16 04:36:46;;;;;;;31.80;6.55;;;;;;;14.28;57.57;101515.69;1750292;79;25820;-59
2022/05/16 04:39:13;;;;;;;30.62;6.58;;;;;;;14.28;57.58;101517.52;1780767;80;27508;-59
2022/05/16 04:44:25;;;;;;;18.90;5.28;;;;;;;14.28;57.37;101524.29;1780560;80;25676;-59
2022/05/16 04:46:53;;;;;;;19.57;5.37;;;;;;;14.30;57.32;101523.14;1780659;80;26111;-60
2022/05/16 04:49:20;;;;;;;18.92;4.87;;;;;;;14.31;57.20;101524.86;1780390;80;25903;-59
2022/05/16 04:51:46;;;;;;;13.08;4.72;;;;;;;14.27;57.13;101522.09;1780371;80;27508;-59
2022/05/16 04:54:13;;;;;;;13.03;4.75;;;;;;;14.27;57.29;101516.68;1780268;80;25763;-58
2022/05/16 04:56:40;;;;;;;15.53;4.00;;;;;;;14.32;56.94;101517.09;1780294;80;25599;-58
2022/05/16 04:59:07;;;;;;;13.80;3.70;;;;;;;14.38;56.33;101513.84;1780377;80;26087;-59
2022/05/16 05:01:34;;;;;;;24.43;5.55;;;;;;;14.43;56.04;101522.02;1769826;80;26524;-59
2022/05/16 05:04:00;;;;;;;20.90;7.80;;;;;;;14.46;56.03;101520.39;1749589;82;27440;-59
2022/05/16 05:06:27;;;;;;;15.95;5.08;;;;;;;14.49;56.01;101514.18;1749265;82;26083;-59
2022/05/16 05:08:54;;;;;;;25.80;4.55;;;;;;;14.59;55.85;101516.02;1749389;82;25471;-59
2022/05/16 05:16:52;;;;;;;20.02;4.85;;;;;;;14.74;55.03;101528.66;1743075;82;27487;-60
2022/05/16 05:19:19;;;;;;;26.60;4.60;;;;;;;14.78;55.23;101527.34;1712090;82;25779;-59
2022/05/16 05:21:46;;;;;;;33.20;4.35;;;;;;;14.86;55.12;101528.34;1743354;82;25855;-59
2022/05/16 05:24:15;;;;;;;13.72;3.62;;;;;;;14.94;54.72;101536.23;1743324;82;26188;-59
2022/05/16 05:26:47;;;;;;;42.23;5.20;;;;;;;15.00;54.64;101539.22;1743738;81;25780;-60
2022/05/16 05:29:16;;;;;;;24.43;5.17;;;;;;;15.07;54.40;101537.27;1743276;82;27456;-59
2022/05/16 05:31:43;;;;;;;25.55;5.20;;;;;;;15.13;54.46;101540.25;1746042;80;25800;-58
2022/05/16 05:34:11;;;;;;;22.73;4.60;;;;;;;15.20;54.20;101534.23;1780629;80;25721;-59
2022/05/16 05:36:40;;;;;;;18.30;4.50;;;;;;;15.23;53.93;101530.72;1780113;80;26085;-58
2022/05/16 05:39:08;;;;;;;19.87;4.22;;;;;;;15.26;53.26;101533.62;1780406;80;25443;-59
2022/05/16 05:41:35;;;;;;;9.63;3.50;;;;;;;15.30;53.05;101537.77;1780144;80;27432;-59
2022/05/16 05:44:02;;;;;;;26.57;3.90;;;;;;;15.40;53.15;101530.45;1780160;80;25731;-59
2022/05/16 05:46:37;;;;;;;11.43;3.55;;;;;;;15.49;53.12;101530.91;1780541;80;25705;-60
2022/05/16 05:49:05;;;;;;;19.60;3.40;;;;;;;15.59;52.66;101534.08;1775509;80;27029;-58
2022/05/16 05:51:33;;;;;;;21.27;3.02;;;;;;;15.67;52.31;101537.38;1773100;79;25795;-58
2022/05/16 05:53:59;;;;;;;12.70;3.45;;;;;;;15.71;51.17;101539.63;1773195;80;27544;-59
2022/05/16 05:56:28;;;;;;;10.43;3.22;;;;;;;15.75;50.64;101546.47;1773122;80;25779;-59
2022/05/16 05:58:57;;;;;;;24.37;3.27;;;;;;;15.78;50.77;101543.44;1773288;80;25736;-59
2022/05/16 06:01:25;;;;;;;14.63;3.50;;;;;;;15.88;50.86;101539.36;1765317;80;26143;-60
2022/05/16 06:03:52;;;;;;;9.18;3.10;;;;;;;15.94;50.69;101531.95;1744392;81;26226;-58
2022/05/16 06:06:18;;;;;;;21.00;3.05;;;;;;;16.03;50.73;101532.91;1744328;82;28260;-59
2022/05/16 06:08:45;;;;;;;9.00;3.05;;;;;;;16.09;50.79;101533.64;1744209;82;25654;-59
2022/05/16 06:11:12;;;;;;;19.77;2.83;;;;;;;16.16;50.60;101531.17;1744316;82;25734;-59
2022/05/16 06:13:39;;;;;;;12.35;2.70;;;;;;;16.22;50.12;101534.62;1742782;82;26770;-59
2022/05/16 06:16:08;;;;;;;15.03;2.92;;;;;;;16.26;49.73;101526.53;1737882;82;25760;-59
2022/05/16 06:18:36;;;;;;;12.98;2.55;;;;;;;16.31;49.24;101526.06;1738097;82;28167;-59
2022/05/16 06:21:04;;;;;;;22.45;3.12;;;;;;;16.38;49.27;101534.41;1737805;82;25844;-59
2022/05/16 06:23:32;;;;;;;10.32;2.95;;;;;;;16.42;48.60;101538.02;1737947;82;25832;-59
2022/05/16 06:26:00;;;;;;;12.05;3.27;;;;;;;16.47;48.45;101533.48;1737822;82;28241;-58
2022/05/16 06:28:29;;;;;;;10.13;3.15;;;;;;;16.54;48.73;101536.43;1738037;82;25484;-59
2022/05/16 06:30:56;;;;;;;10.55;3.05;;;;;;;16.62;49.10;101536.50;1737760;82;27522;-58
2022/05/16 06:33:28;;;;;;;9.78;2.37;;;;;;;16.69;48.63;101534.84;1727082;80;25727;-59
2022/05/16 06:35:57;;;;;;;15.88;2.75;;;;;;;16.76;48.19;101533.72;1723604;83;25788;-60
2022/05/16 06:38:28;;;;;;;9.05;2.37;;;;;;;16.85;46.89;101527.85;1723718;81;26256;-60
2022/05/16 06:40:57;;;;;;;10.43;2.37;;;;;;;16.92;47.48;101530.76;1734007;80;25753;-60
2022/05/16 06:43:27;;;;;;;14.15;2.33;;;;;;;17.00;47.66;101531.72;1762818;80;27586;-60
2022/05/16 06:45:54;;;;;;;12.68;2.25;;;;;;;17.10;47.31;101530.75;1741032;80;25934;-60
2022/05/16 06:48:21;;;;;;;7.17;1.98;;;;;;;17.18;45.98;101530.80;1745060;80;25768;-60
2022/05/16 06:50:49;;;;;;;9.00;2.75;;;;;;;17.26;46.19;101533.56;1751552;81;26099;-60
2022/05/16 06:53:24;;;;;;;9.50;2.35;;;;;;;17.32;45.33;101531.54;1733965;81;25686;-59
2022/05/16 06:55:51;;;;;;;9.55;1.92;;;;;;;17.39;45.08;101537.19;1727172;82;27662;-59
2022/05/16 06:58:18;;;;;;;8.93;2.80;;;;;;;17.46;44.64;101536.04;1727803;83;25515;-59
2022/05/16 07:00:46;;;;;;;9.70;2.08;;;;;;;17.57;44.39;101534.89;1750759;81;25785;-59
2022/05/16 07:03:13;;;;;;;9.00;1.98;;;;;;;17.69;44.23;101534.95;1751395;81;26237;-60
2022/05/16 07:05:41;;;;;;;9.75;1.70;;;;;;;17.79;43.94;101536.16;1743180;82;25817;-59
2022/05/16 07:08:07;;;;;;;16.73;1.92;;;;;;;17.89;42.97;101530.56;1746415;81;27608;-59
2022/05/16 07:10:34;;;;;;;6.67;1.82;;;;;;;17.98;42.19;101527.74;1751541;81;25921;-60
2022/05/16 07:13:01;;;;;;;9.68;1.62;;;;;;;18.07;41.75;101529.95;1761231;80;25749;-60
2022/05/16 07:15:28;;;;;;;4.58;1.30;;;;;;;18.15;40.90;101529.13;1745285;81;25965;-59
2022/05/16 07:17:55;;;;;;;6.25;1.52;;;;;;;18.21;39.98;101536.62;1743355;81;26088;-60
2022/05/16 07:20:22;;;;;;;7.95;1.75;;;;;;;18.25;39.97;101534.41;1743154;82;27459;-60
2022/05/16 07:22:49;;;;;;;9.43;1.60;;;;;;;18.30;39.92;101532.05;1743170;82;27223;-60
2022/05/16 07:25:22;;;;;;;2.65;1.20;;;;;;;18.37;39.10;101528.14;1749845;81;25713;-59
2022/05/16 07:27:57;;;;;;;9.28;1.30;;;;;;;18.45;39.00;101520.81;1762776;81;26049;-60
2022/05/16 07:30:28;;;;;;;12.65;1.80;;;;;;;18.54;39.75;101520.81;1762518;81;25835;-60
2022/05/16 07:32:56;;;;;;;5.45;1.72;;;;;;;18.61;39.65;101525.41;1769742;80;27514;-60
2022/05/16 07:35:28;;;;;;;9.48;1.92;;;;;;;18.68;39.59;101524.72;1762740;80;25793;-59
2022/05/16 07:37:55;;;;;;;9.03;1.65;;;;;;;18.74;39.89;101522.17;1743418;81;25726;-60
2022/05/16 07:40:26;;;;;;;6.85;1.80;;;;;;;18.83;40.24;101517.54;1745997;81;26514;-59
2022/05/16 07:42:54;;;;;;;7.50;1.32;;;;;;;18.91;40.36;101516.69;1762680;81;25819;-59
2022/05/16 07:45:23;;;;;;;13.13;2.08;;;;;;;19.00;40.14;101517.05;1762264;81;27568;-59
2022/05/16 07:47:50;;;;;;;5.33;1.50;;;;;;;19.09;38.94;101521.98;1711680;83;25818;-59
2022/05/16 07:50:18;;;;;;;9.68;2.62;;;;;;;19.13;38.71;101519.75;1713473;82;25815;-60
2022/05/16 07:52:48;;;;;;;4.78;1.32;;;;;;;19.15;38.67;101507.63;1729337;82;26429;-59
2022/05/16 07:55:25;;;;;;;5.53;1.60;;;;;;;19.26;39.07;101517.31;1742966;81;26456;-59
2022/05/16 07:57:52;;;;;;;6.08;1.77;;;;;;;19.44;39.38;101521.18;1769550;80;27634;-59
2022/05/16 08:00:22;;;;;;;10.15;1.60;;;;;;;19.50;38.62;101516.38;1769459;81;25751;-59
2022/05/16 08:02:52;;;;;;;8.08;2.17;;;;;;;19.56;38.44;101509.36;1742727;81;25746;-59
2022/05/16 08:05:21;;;;;;;12.35;1.95;;;;;;;19.70;38.75;101510.48;1744228;81;26099;-59
2022/05/16 08:10:36;;;;;;;13.72;1.55;;;;;;;20.00;38.19;101517.48;1759439;81;28183;-59
2022/05/16 08:13:07;;;;;;;4.70;1.12;;;;;;;20.08;37.01;101513.86;1746465;81;26563;-59
2022/05/16 08:15:37;;;;;;;5.47;1.27;;;;;;;20.13;37.19;101504.59;1751588;81;25653;-59
2022/05/16 08:18:05;;;;;;;5.92;1.67;;;;;;;20.23;36.56;101510.67;1768545;81;27047;-58
2022/05/16 08:20:39;;;;;;;7.72;1.47;;;;;;;20.33;37.20;101507.72;1735219;82;25803;-60
2022/05/16 08:23:06;;;;;;;8.88;1.35;;;;;;;20.44;36.18;101502.32;1739288;81;28390;-60
2022/05/16 08:25:34;;;;;;;8.10;1.47;;;;;;;20.53;36.73;101503.95;1745909;81;25799;-60
2022/05/16 08:28:00;;;;;;;8.18;2.00;;;;;;;20.60;36.35;101503.54;1741860;81;25706;-60
2022/05/16 08:30:28;;;;;;;10.18;1.32;;;;;;;20.66;35.98;101499.75;1739280;81;26136;-60
2022/05/16 08:32:58;;;;;;;11.40;1.50;;;;;;;20.80;35.73;101497.05;1763612;80;25718;-59
2022/05/16 08:35:25;;;;;;;8.00;1.70;;;;;;;21.02;35.94;101484.03;1778920;80;27542;-59
2022/05/16 08:41:01;;;;;;;13.08;1.60;;;;;;;21.46;34.32;101489.99;1740373;81;25488;-59
2022/05/16 08:43:34;;;;;;;8.05;1.25;;;;;;;21.54;33.83;101486.28;1737706;82;26751;-60
2022/05/16 08:46:26;;;;;;;4.72;1.70;;;;;;;21.47;33.50;101490.30;1744393;81;25789;-60
2022/05/16 08:49:08;;;;;;;4.30;1.60;;;;;;;21.45;33.44;101488.29;1735049;81;27474;-60
2022/05/16 08:51:36;;;;;;;6.65;1.90;;;;;;;21.46;33.87;101489.12;1723137;82;25922;-59
2022/05/16 08:54:14;;;;;;;5.97;1.25;;;;;;;21.67;33.96;101481.01;1737630;82;25704;-59
2022/05/16 08:56:45;;;;;;;11.95;2.00;;;;;;;21.80;33.45;101488.53;1760856;81;26272;-59
2022/05/16 08:59:22;;;;;;;10.82;1.70;;;;;;;21.91;32.73;101482.22;1769857;80;25840;-59
2022/05/16 09:01:54;;;;;;;8.18;1.80;;;;;;;21.95;32.73;101482.14;1739754;81;27313;-60
2022/05/16 09:04:50;;;;;;;3.65;1.42;;;;;;;21.96;32.49;101482.47;1769715;80;25757;-59
2022/05/16 09:07:43;;;;;;;12.68;1.80;;;;;;;22.00;32.70;101479.69;1769551;81;25799;-58
2022/05/16 09:10:18;;;;;;;8.75;1.85;;;;;;;22.27;32.08;101471.18;1759074;81;26128;-58
2022/05/16 09:12:56;;;;;;;11.30;1.67;;;;;;;22.49;32.12;101472.03;1759388;81;26199;-60
2022/05/16 09:15:34;;;;;;;9.33;2.05;;;;;;;22.80;31.50;101470.80;1759001;81;27636;-59
2022/05/16 09:18:34;;;;;;;6.40;2.17;;;;;;;23.15;31.43;101463.06;1751746;81;25740;-60
2022/05/16 09:21:30;;;;;;;6.90;1.67;;;;;;;23.60;31.27;101462.12;1727640;82;25938;-59
2022/05/16 09:24:28;;;;;;;6.17;1.65;;;;;;;24.11;29.75;101471.47;1737711;82;26816;-60
2022/05/16 09:27:00;;;;;;;6.53;2.70;;;;;;;24.54;29.17;101462.80;1738778;82;25728;-60
2022/05/16 09:29:42;;;;;;;9.43;1.87;;;;;;;24.99;29.50;101460.22;1737329;81;26994;-59
2022/05/16 09:32:19;;;;;;;10.78;1.90;;;;;;;25.37;28.50;101448.13;1741769;80;25823;-59
2022/05/16 09:34:46;;;;;;;10.48;1.90;;;;;;;25.77;28.41;101447.41;1735611;82;25815;-59
2022/05/16 09:37:13;;;;;;;6.62;1.90;;;;;;;26.18;27.37;101442.49;1737723;82;25967;-59
2022/05/16 09:39:40;;;;;;;10.35;1.35;;;;;;;26.57;27.42;101440.98;1738210;81;25800;-59
2022/05/16 09:42:27;;;;;;;5.28;1.80;;;;;;;27.05;26.66;101438.05;1751339;81;27562;-60
2022/05/16 09:45:03;;;;;;;7.30;1.55;;;;;;;27.33;25.70;101437.52;1752327;81;25917;-60
2022/05/16 09:47:38;;;;;;;9.05;0.98;;;;;;;27.64;26.05;101441.70;1711739;81;25715;-59
2022/05/16 09:50:27;;;;;;;7.30;1.37;;;;;;;28.00;24.51;101433.50;1742617;82;26019;-59
2022/05/16 09:53:14;;;;;;;6.17;1.37;;;;;;;28.13;24.10;101439.38;1748550;82;25728;-59
2022/05/16 09:55:54;;;;;;;3.27;1.30;;;;;;;28.27;23.38;101426.48;1747695;82;27078;-59
2022/05/16 09:58:31;;;;;;;8.23;1.40;;;;;;;28.52;24.49;101430.93;1762078;80;25497;-59
2022/05/16 10:01:01;;;;;;;5.35;1.32;;;;;;;28.94;24.06;101419.44;1774032;80;25437;-59
2022/05/16 10:03:45;;;;;;;10.65;1.62;;;;;;;29.39;23.12;101420.13;1754026;81;26855;-59
2022/05/16 10:06:37;;;;;;;6.65;1.57;;;;;;;29.73;22.94;101416.04;1722301;81;25821;-60
2022/05/16 10:09:09;;;;;;;8.78;1.50;;;;;;;30.11;22.34;101410.34;1750427;80;27518;-60
2022/05/16 10:11:38;;;;;;;12.40;2.27;;;;;;;30.38;22.08;101404.11;1748416;81;25959;-60
2022/05/16 10:14:06;;;;;;;6.35;1.65;;;;;;;30.70;22.00;101400.70;1748548;81;25748;-61
2022/05/16 10:16:35;;;;;;;5.60;1.20;;;;;;;31.26;21.97;101398.37;1748950;82;27027;-60
2022/05/16 10:19:06;;;;;;;7.85;1.77;;;;;;;31.51;19.88;101400.56;1733900;81;25531;-60
2022/05/16 10:21:41;;;;;;;3.85;1.65;;;;;;;31.29;20.57;101399.22;1733572;82;28159;-60
2022/05/16 10:24:12;;;;;;;15.35;2.25;;;;;;;31.11;19.79;101396.25;1733444;82;25882;-60
2022/05/16 10:26:44;;;;;;;5.00;1.12;;;;;;;31.07;20.96;101390.88;1728764;81;25837;-60
2022/05/16 10:29:19;;;;;;;13.78;1.80;;;;;;;31.40;21.17;101393.23;1704076;82;26078;-60
2022/05/16 10:34:42;;;;;;;6.70;1.40;;;;;;;31.86;20.25;101382.30;1726042;82;27498;-59
2022/05/16 10:37:10;;;;;;;6.53;1.77;;;;;;;32.51;20.39;101382.21;1726246;83;25748;-60
2022/05/16 10:39:45;;;;;;;10.32;2.05;;;;;;;33.19;19.62;101371.67;1712435;83;25762;-61
2022/05/16 10:42:24;;;;;;;7.62;1.57;;;;;;;33.48;18.26;101382.37;1736877;81;26033;-61
2022/05/16 10:45:15;;;;;;;7.40;1.65;;;;;;;33.63;18.45;101371.22;1730690;80;25792;-60
2022/05/16 10:48:11;;;;;;;7.55;1.50;;;;;;;33.88;17.23;101373.76;1755144;81;27437;-61
2022/05/16 10:50:47;;;;;;;5.67;1.32;;;;;;;34.13;17.25;101366.47;1716964;83;25811;-60
2022/05/16 10:53:31;;;;;;;4.87;1.27;;;;;;;33.75;17.67;101372.34;1714620;83;25948;-61
2022/05/16 10:56:12;;;;;;;8.28;1.07;;;;;;;34.08;18.30;101367.89;1714950;83;26098;-60
2022/05/16 10:58:50;;;;;;;14.75;2.05;;;;;;;34.27;17.92;101358.35;1710314;83;25764;-60
2022/05/16 11:01:24;;;;;;;11.38;1.50;;;;;;;34.85;17.92;101353.71;1675500;84;27476;-60
2022/05/16 11:04:08;;;;;;;5.58;1.47;;;;;;;35.33;17.28;101352.36;1704637;84;25891;-60
2022/05/16 11:06:49;;;;;;;9.63;1.70;;;;;;;35.61;16.37;101342.95;1704627;83;25816;-60
2022/05/16 11:09:33;;;;;;;4.08;1.40;;;;;;;35.10;16.88;101348.59;1704514;83;26085;-60
2022/05/16 11:12:33;;;;;;;6.25;1.35;;;;;;;34.97;17.01;101342.80;1720844;83;25759;-59
2022/05/16 11:15:21;;;;;;;9.25;1.50;;;;;;;35.00;17.01;101343.05;1721202;82;27552;-62
2022/05/16 11:17:54;;;;;;;9.85;1.50;;;;;;;35.05;17.21;101331.86;1724896;83;25526;-59
2022/05/16 11:20:29;;;;;;;19.60;2.20;;;;;;;35.06;17.09;101328.48;1714506;83;25463;-60
2022/05/16 11:23:32;;;;;;;8.35;1.52;;;;;;;35.12;17.03;101327.89;1720915;82;26084;-60
2022/05/16 11:26:11;;;;;;;5.78;1.60;;;;;;;34.98;17.16;101326.30;1682261;83;25710;-61
2022/05/16 11:31:59;;;;;;;17.45;2.12;;;;;;;33.62;18.24;101323.52;1708123;82;26348;-61
2022/05/16 11:34:59;;;;;;;5.05;1.25;;;;;;;33.25;18.99;101323.17;1707351;83;25789;-61
2022/05/16 11:37:48;;;;;;;9.23;1.80;;;;;;;33.32;18.68;101312.61;1707033;84;26165;-60
2022/05/16 11:40:22;;;;;;;6.50;1.75;;;;;;;33.51;18.60;101312.92;1683656;83;26312;-60
2022/05/16 11:43:01;;;;;;;7.90;1.70;;;;;;;33.69;18.55;101307.33;1689336;84;27323;-60
2022/05/16 11:46:12;;;;;;;5.72;1.70;;;;;;;33.63;18.45;101308.45;1706764;84;25784;-60
2022/05/16 11:49:04;;;;;;;7.92;2.22;;;;;;;33.38;18.50;101307.34;1704556;83;25819;-60
2022/05/16 11:51:59;;;;;;;5.90;1.87;;;;;;;33.71;18.80;101305.64;1699666;84;26083;-60
2022/05/16 11:54:34;;;;;;;7.72;1.67;;;;;;;34.00;18.49;101302.30;1699561;84;25760;-60
2022/05/16 12:02:55;;;;;;;9.63;1.80;;;;;;;35.15;18.37;101295.14;1699779;83;25709;-61
2022/05/16 12:05:27;;;;;;;4.17;1.80;;;;;;;35.62;17.39;101292.86;1691041;84;26119;-61
2022/05/16 12:08:06;;;;;;;8.30;1.77;;;;;;;35.67;17.10;101288.61;1699700;84;25710;-60
2022/05/16 12:10:33;;;;;;;9.53;1.80;;;;;;;35.96;17.42;101294.22;1677479;85;27466;-61
2022/05/16 12:13:28;;;;;;;12.40;2.27;;;;;;;36.58;16.69;101289.31;1680303;85;25892;-60